sensor_id;sensor_type;location;lat;lon;timestamp;P1;durP1;ratioP1;P2;durP2;ratioP2
34064;SDS011;20339;49.754;20.158;2022-08-01T00:01:53;4.20;;;3.90;;
34064;SDS011;20339;49.754;20.158;2022-08-01T00:04:24;4.90;;;4.40;;
34064;SDS011;20339;49.754;20.158;2022-08-01T00:06:56;5.20;;;4.50;;
34064;SDS011;20339;49.754;20.158;2022-08-01T00:09:27;4.30;;;3.90;;
34064;SDS011;20339;49.754;20.158;2022-08-01T00:11:58;5.50;;;4.70;;
34064;SDS011;20339;49.754;20.158;2022-08-01T00:14:30;5.40;;;4.90;;
34064;SDS011;20339;49.754;20.158;2022-08-01T00:17:01;4.40;;;3.90;;
34064;SDS011;20339;49.754;20.158;2022-08-01T00:19:33;5.10;;;4.60;;
34064;SDS011;20339;49.754;20.158;2022-08-01T00:22:04;5.20;;;4.60;;
34064;SDS011;20339;49.754;20.158;2022-08-01T00:24:36;7.40;;;4.30;;
34064;SDS011;20339;49.754;20.158;2022-08-01T00:27:07;5.30;;;4.60;;
34064;SDS011;20339;49.754;20.158;2022-08-01T00:29:38;6.50;;;4.50;;
34064;SDS011;20339;49.754;20.158;2022-08-01T00:32:12;4.60;;;4.20;;
34064;SDS011;20339;49.754;20.158;2022-08-01T00:34:43;4.90;;;4.40;;
34064;SDS011;20339;49.754;20.158;2022-08-01T00:37:15;4.50;;;4.10;;
34064;SDS011;20339;49.754;20.158;2022-08-01T00:39:46;6.70;;;4.30;;
34064;SDS011;20339;49.754;20.158;2022-08-01T00:42:17;5.40;;;4.30;;
34064;SDS011;20339;49.754;20.158;2022-08-01T00:44:48;4.50;;;4.10;;
34064;SDS011;20339;49.754;20.158;2022-08-01T00:47:19;4.90;;;4.20;;
34064;SDS011;20339;49.754;20.158;2022-08-01T00:49:51;4.00;;;3.60;;
34064;SDS011;20339;49.754;20.158;2022-08-01T00:52:22;8.90;;;4.50;;
34064;SDS011;20339;49.754;20.158;2022-08-01T00:54:53;5.00;;;4.40;;
34064;SDS011;20339;49.754;20.158;2022-08-01T00:57:25;6.80;;;4.10;;
34064;SDS011;20339;49.754;20.158;2022-08-01T00:59:57;4.80;;;3.80;;
34064;SDS011;20339;49.754;20.158;2022-08-01T01:02:28;6.20;;;4.20;;
34064;SDS011;20339;49.754;20.158;2022-08-01T01:04:59;6.00;;;4.40;;
34064;SDS011;20339;49.754;20.158;2022-08-01T01:07:32;4.10;;;3.70;;
34064;SDS011;20339;49.754;20.158;2022-08-01T01:10:15;3.90;;;3.40;;
34064;SDS011;20339;49.754;20.158;2022-08-01T01:12:51;5.60;;;4.10;;
34064;SDS011;20339;49.754;20.158;2022-08-01T01:15:28;6.30;;;4.50;;
34064;SDS011;20339;49.754;20.158;2022-08-01T01:18:07;4.90;;;3.90;;
34064;SDS011;20339;49.754;20.158;2022-08-01T01:20:41;4.00;;;3.50;;
34064;SDS011;20339;49.754;20.158;2022-08-01T01:23:18;4.50;;;3.90;;
34064;SDS011;20339;49.754;20.158;2022-08-01T01:26:04;4.00;;;3.50;;
34064;SDS011;20339;49.754;20.158;2022-08-01T01:29:02;4.40;;;3.90;;
34064;SDS011;20339;49.754;20.158;2022-08-01T01:31:40;4.60;;;3.60;;
34064;SDS011;20339;49.754;20.158;2022-08-01T01:34:17;3.90;;;3.50;;
34064;SDS011;20339;49.754;20.158;2022-08-01T01:36:51;5.00;;;3.30;;
34064;SDS011;20339;49.754;20.158;2022-08-01T01:39:24;4.80;;;3.30;;
34064;SDS011;20339;49.754;20.158;2022-08-01T01:42:02;3.90;;;3.40;;
34064;SDS011;20339;49.754;20.158;2022-08-01T01:44:36;4.20;;;3.30;;
34064;SDS011;20339;49.754;20.158;2022-08-01T01:47:13;5.00;;;3.20;;
34064;SDS011;20339;49.754;20.158;2022-08-01T01:49:45;4.70;;;3.30;;
34064;SDS011;20339;49.754;20.158;2022-08-01T01:52:19;4.10;;;3.60;;
34064;SDS011;20339;49.754;20.158;2022-08-01T01:54:52;6.20;;;3.70;;
34064;SDS011;20339;49.754;20.158;2022-08-01T01:57:25;5.60;;;3.30;;
34064;SDS011;20339;49.754;20.158;2022-08-01T01:59:59;5.60;;;3.70;;
34064;SDS011;20339;49.754;20.158;2022-08-01T02:02:32;3.80;;;3.30;;
34064;SDS011;20339;49.754;20.158;2022-08-01T02:05:06;6.80;;;3.40;;
34064;SDS011;20339;49.754;20.158;2022-08-01T02:07:39;4.30;;;3.20;;
34064;SDS011;20339;49.754;20.158;2022-08-01T02:10:12;4.20;;;3.50;;
34064;SDS011;20339;49.754;20.158;2022-08-01T02:12:47;4.40;;;3.60;;
34064;SDS011;20339;49.754;20.158;2022-08-01T02:15:26;6.40;;;3.90;;
34064;SDS011;20339;49.754;20.158;2022-08-01T02:17:59;5.10;;;4.00;;
34064;SDS011;20339;49.754;20.158;2022-08-01T02:20:31;4.80;;;3.90;;
34064;SDS011;20339;49.754;20.158;2022-08-01T02:23:06;7.00;;;4.00;;
34064;SDS011;20339;49.754;20.158;2022-08-01T02:25:42;5.40;;;4.20;;
34064;SDS011;20339;49.754;20.158;2022-08-01T02:28:20;5.40;;;4.10;;
34064;SDS011;20339;49.754;20.158;2022-08-01T02:30:56;4.90;;;3.40;;
34064;SDS011;20339;49.754;20.158;2022-08-01T02:33:33;4.20;;;3.80;;
34064;SDS011;20339;49.754;20.158;2022-08-01T02:36:07;4.90;;;3.40;;
34064;SDS011;20339;49.754;20.158;2022-08-01T02:38:42;4.60;;;3.60;;
34064;SDS011;20339;49.754;20.158;2022-08-01T02:41:16;5.70;;;4.10;;
34064;SDS011;20339;49.754;20.158;2022-08-01T02:43:51;4.00;;;3.60;;
34064;SDS011;20339;49.754;20.158;2022-08-01T02:46:29;4.40;;;3.50;;
34064;SDS011;20339;49.754;20.158;2022-08-01T02:49:04;5.30;;;3.50;;
34064;SDS011;20339;49.754;20.158;2022-08-01T02:51:39;6.10;;;3.50;;
34064;SDS011;20339;49.754;20.158;2022-08-01T02:54:12;4.10;;;3.50;;
34064;SDS011;20339;49.754;20.158;2022-08-01T02:56:47;4.80;;;3.70;;
34064;SDS011;20339;49.754;20.158;2022-08-01T02:59:21;4.00;;;3.60;;
34064;SDS011;20339;49.754;20.158;2022-08-01T03:01:53;4.00;;;3.70;;
34064;SDS011;20339;49.754;20.158;2022-08-01T03:04:26;4.70;;;3.70;;
34064;SDS011;20339;49.754;20.158;2022-08-01T03:07:00;7.00;;;3.70;;
34064;SDS011;20339;49.754;20.158;2022-08-01T03:09:34;4.30;;;3.70;;
34064;SDS011;20339;49.754;20.158;2022-08-01T03:12:11;3.30;;;3.00;;
34064;SDS011;20339;49.754;20.158;2022-08-01T03:14:45;4.80;;;3.60;;
34064;SDS011;20339;49.754;20.158;2022-08-01T03:17:21;4.20;;;3.60;;
34064;SDS011;20339;49.754;20.158;2022-08-01T03:19:56;4.30;;;3.70;;
34064;SDS011;20339;49.754;20.158;2022-08-01T03:22:31;5.90;;;4.20;;
34064;SDS011;20339;49.754;20.158;2022-08-01T03:25:04;4.90;;;3.90;;
34064;SDS011;20339;49.754;20.158;2022-08-01T03:27:37;4.90;;;3.90;;
34064;SDS011;20339;49.754;20.158;2022-08-01T03:30:09;5.00;;;3.70;;
34064;SDS011;20339;49.754;20.158;2022-08-01T03:32:43;5.00;;;3.80;;
34064;SDS011;20339;49.754;20.158;2022-08-01T03:35:14;7.60;;;3.90;;
34064;SDS011;20339;49.754;20.158;2022-08-01T03:37:46;7.80;;;4.00;;
34064;SDS011;20339;49.754;20.158;2022-08-01T03:40:22;4.30;;;3.50;;
34064;SDS011;20339;49.754;20.158;2022-08-01T03:42:58;4.40;;;3.50;;
34064;SDS011;20339;49.754;20.158;2022-08-01T03:45:34;4.90;;;3.60;;
34064;SDS011;20339;49.754;20.158;2022-08-01T03:48:08;5.40;;;3.50;;
34064;SDS011;20339;49.754;20.158;2022-08-01T03:50:43;6.80;;;4.00;;
34064;SDS011;20339;49.754;20.158;2022-08-01T03:53:20;4.20;;;3.80;;
34064;SDS011;20339;49.754;20.158;2022-08-01T03:55:53;4.60;;;3.40;;
34064;SDS011;20339;49.754;20.158;2022-08-01T03:58:28;4.70;;;3.60;;
34064;SDS011;20339;49.754;20.158;2022-08-01T04:01:00;4.20;;;3.80;;
34064;SDS011;20339;49.754;20.158;2022-08-01T04:03:34;4.70;;;3.80;;
34064;SDS011;20339;49.754;20.158;2022-08-01T04:06:07;4.60;;;3.40;;
34064;SDS011;20339;49.754;20.158;2022-08-01T04:08:38;3.80;;;3.30;;
34064;SDS011;20339;49.754;20.158;2022-08-01T04:11:10;4.30;;;3.30;;
34064;SDS011;20339;49.754;20.158;2022-08-01T04:13:42;5.00;;;3.50;;
34064;SDS011;20339;49.754;20.158;2022-08-01T04:16:14;3.40;;;3.00;;
34064;SDS011;20339;49.754;20.158;2022-08-01T04:18:48;5.20;;;3.20;;
34064;SDS011;20339;49.754;20.158;2022-08-01T04:21:23;3.10;;;2.80;;
34064;SDS011;20339;49.754;20.158;2022-08-01T04:23:59;4.90;;;3.70;;
34064;SDS011;20339;49.754;20.158;2022-08-01T04:26:34;4.00;;;3.00;;
34064;SDS011;20339;49.754;20.158;2022-08-01T04:29:08;3.40;;;2.70;;
34064;SDS011;20339;49.754;20.158;2022-08-01T04:31:43;4.80;;;3.00;;
34064;SDS011;20339;49.754;20.158;2022-08-01T04:34:18;4.60;;;3.50;;
34064;SDS011;20339;49.754;20.158;2022-08-01T04:36:55;4.40;;;3.40;;
34064;SDS011;20339;49.754;20.158;2022-08-01T04:39:36;4.40;;;3.00;;
34064;SDS011;20339;49.754;20.158;2022-08-01T04:42:10;2.90;;;2.60;;
34064;SDS011;20339;49.754;20.158;2022-08-01T04:44:47;4.90;;;2.80;;
34064;SDS011;20339;49.754;20.158;2022-08-01T04:47:23;3.90;;;2.80;;
34064;SDS011;20339;49.754;20.158;2022-08-01T04:49:57;5.50;;;3.00;;
34064;SDS011;20339;49.754;20.158;2022-08-01T04:52:33;4.60;;;2.80;;
34064;SDS011;20339;49.754;20.158;2022-08-01T04:55:06;3.40;;;3.00;;
34064;SDS011;20339;49.754;20.158;2022-08-01T04:57:39;6.00;;;2.70;;
34064;SDS011;20339;49.754;20.158;2022-08-01T05:00:14;3.30;;;2.70;;
34064;SDS011;20339;49.754;20.158;2022-08-01T05:02:46;3.90;;;2.60;;
34064;SDS011;20339;49.754;20.158;2022-08-01T05:05:18;3.20;;;2.70;;
34064;SDS011;20339;49.754;20.158;2022-08-01T05:07:52;2.90;;;2.40;;
34064;SDS011;20339;49.754;20.158;2022-08-01T05:10:27;2.90;;;1.90;;
34064;SDS011;20339;49.754;20.158;2022-08-01T05:13:01;2.90;;;2.30;;
34064;SDS011;20339;49.754;20.158;2022-08-01T05:15:32;3.30;;;1.90;;
34064;SDS011;20339;49.754;20.158;2022-08-01T05:18:08;3.10;;;1.90;;
34064;SDS011;20339;49.754;20.158;2022-08-01T05:20:39;2.50;;;2.00;;
34064;SDS011;20339;49.754;20.158;2022-08-01T05:23:11;2.80;;;1.90;;
34064;SDS011;20339;49.754;20.158;2022-08-01T05:25:45;1.90;;;1.70;;
34064;SDS011;20339;49.754;20.158;2022-08-01T05:28:23;3.00;;;1.70;;
34064;SDS011;20339;49.754;20.158;2022-08-01T05:30:57;4.10;;;1.70;;
34064;SDS011;20339;49.754;20.158;2022-08-01T05:33:28;1.50;;;1.40;;
34064;SDS011;20339;49.754;20.158;2022-08-01T05:36:00;3.00;;;1.70;;
34064;SDS011;20339;49.754;20.158;2022-08-01T05:38:32;1.90;;;1.70;;
34064;SDS011;20339;49.754;20.158;2022-08-01T05:41:03;1.60;;;1.50;;
34064;SDS011;20339;49.754;20.158;2022-08-01T05:43:37;3.60;;;1.50;;
34064;SDS011;20339;49.754;20.158;2022-08-01T05:46:08;2.50;;;1.40;;
34064;SDS011;20339;49.754;20.158;2022-08-01T05:48:40;1.60;;;1.50;;
34064;SDS011;20339;49.754;20.158;2022-08-01T05:51:11;2.40;;;1.50;;
34064;SDS011;20339;49.754;20.158;2022-08-01T05:53:42;2.10;;;1.50;;
34064;SDS011;20339;49.754;20.158;2022-08-01T05:56:15;1.50;;;1.30;;
34064;SDS011;20339;49.754;20.158;2022-08-01T05:58:47;2.00;;;1.50;;
34064;SDS011;20339;49.754;20.158;2022-08-01T06:01:21;2.20;;;1.50;;
34064;SDS011;20339;49.754;20.158;2022-08-01T06:03:53;2.90;;;1.50;;
34064;SDS011;20339;49.754;20.158;2022-08-01T06:06:25;2.30;;;1.20;;
34064;SDS011;20339;49.754;20.158;2022-08-01T06:08:56;2.80;;;1.60;;
34064;SDS011;20339;49.754;20.158;2022-08-01T06:11:28;2.30;;;1.30;;
34064;SDS011;20339;49.754;20.158;2022-08-01T06:14:02;2.60;;;1.20;;
34064;SDS011;20339;49.754;20.158;2022-08-01T06:16:33;1.50;;;1.40;;
34064;SDS011;20339;49.754;20.158;2022-08-01T06:19:04;1.20;;;1.20;;
34064;SDS011;20339;49.754;20.158;2022-08-01T06:21:37;2.50;;;1.30;;
34064;SDS011;20339;49.754;20.158;2022-08-01T06:24:09;1.80;;;1.20;;
34064;SDS011;20339;49.754;20.158;2022-08-01T06:26:41;2.50;;;1.60;;
34064;SDS011;20339;49.754;20.158;2022-08-01T06:29:15;2.50;;;1.40;;
34064;SDS011;20339;49.754;20.158;2022-08-01T06:31:50;3.00;;;1.50;;
34064;SDS011;20339;49.754;20.158;2022-08-01T06:34:22;1.70;;;1.60;;
34064;SDS011;20339;49.754;20.158;2022-08-01T06:36:54;2.80;;;1.50;;
34064;SDS011;20339;49.754;20.158;2022-08-01T06:39:29;2.80;;;1.40;;
34064;SDS011;20339;49.754;20.158;2022-08-01T06:42:04;1.40;;;1.20;;
34064;SDS011;20339;49.754;20.158;2022-08-01T06:44:40;1.40;;;1.10;;
34064;SDS011;20339;49.754;20.158;2022-08-01T06:47:13;2.20;;;1.40;;
34064;SDS011;20339;49.754;20.158;2022-08-01T06:50:01;2.00;;;1.20;;
34064;SDS011;20339;49.754;20.158;2022-08-01T06:52:38;1.60;;;1.30;;
34064;SDS011;20339;49.754;20.158;2022-08-01T06:55:10;1.30;;;1.20;;
34064;SDS011;20339;49.754;20.158;2022-08-01T06:57:49;1.20;;;1.10;;
34064;SDS011;20339;49.754;20.158;2022-08-01T07:00:22;2.80;;;1.30;;
34064;SDS011;20339;49.754;20.158;2022-08-01T07:02:55;2.40;;;1.20;;
34064;SDS011;20339;49.754;20.158;2022-08-01T07:05:27;1.60;;;1.20;;
34064;SDS011;20339;49.754;20.158;2022-08-01T07:07:59;1.10;;;1.10;;
34064;SDS011;20339;49.754;20.158;2022-08-01T07:10:30;2.30;;;1.20;;
34064;SDS011;20339;49.754;20.158;2022-08-01T07:13:01;1.20;;;1.10;;
34064;SDS011;20339;49.754;20.158;2022-08-01T07:15:32;1.80;;;0.90;;
34064;SDS011;20339;49.754;20.158;2022-08-01T07:18:03;3.00;;;1.30;;
34064;SDS011;20339;49.754;20.158;2022-08-01T07:20:35;1.50;;;1.10;;
34064;SDS011;20339;49.754;20.158;2022-08-01T07:23:08;3.90;;;1.50;;
34064;SDS011;20339;49.754;20.158;2022-08-01T07:25:41;1.90;;;1.40;;
34064;SDS011;20339;49.754;20.158;2022-08-01T07:28:12;1.90;;;1.10;;
34064;SDS011;20339;49.754;20.158;2022-08-01T07:30:44;2.00;;;1.20;;
34064;SDS011;20339;49.754;20.158;2022-08-01T07:33:15;3.30;;;1.30;;
34064;SDS011;20339;49.754;20.158;2022-08-01T07:35:46;2.20;;;1.40;;
34064;SDS011;20339;49.754;20.158;2022-08-01T07:38:17;2.20;;;1.30;;
34064;SDS011;20339;49.754;20.158;2022-08-01T07:40:48;1.30;;;1.20;;
34064;SDS011;20339;49.754;20.158;2022-08-01T07:43:22;1.10;;;1.00;;
34064;SDS011;20339;49.754;20.158;2022-08-01T07:45:53;1.30;;;1.10;;
34064;SDS011;20339;49.754;20.158;2022-08-01T07:48:25;2.10;;;1.10;;
34064;SDS011;20339;49.754;20.158;2022-08-01T07:50:56;2.30;;;1.10;;
34064;SDS011;20339;49.754;20.158;2022-08-01T07:53:28;4.20;;;1.20;;
34064;SDS011;20339;49.754;20.158;2022-08-01T07:56:00;3.10;;;1.30;;
34064;SDS011;20339;49.754;20.158;2022-08-01T07:58:32;1.80;;;0.90;;
34064;SDS011;20339;49.754;20.158;2022-08-01T08:01:04;1.50;;;1.00;;
34064;SDS011;20339;49.754;20.158;2022-08-01T08:03:35;1.90;;;1.10;;
34064;SDS011;20339;49.754;20.158;2022-08-01T08:06:07;1.00;;;0.90;;
34064;SDS011;20339;49.754;20.158;2022-08-01T08:08:38;1.60;;;0.70;;
34064;SDS011;20339;49.754;20.158;2022-08-01T08:11:09;1.10;;;0.90;;
34064;SDS011;20339;49.754;20.158;2022-08-01T08:13:41;1.80;;;0.90;;
34064;SDS011;20339;49.754;20.158;2022-08-01T08:16:12;0.90;;;0.60;;
34064;SDS011;20339;49.754;20.158;2022-08-01T08:18:44;2.00;;;1.00;;
34064;SDS011;20339;49.754;20.158;2022-08-01T08:21:15;2.50;;;1.10;;
34064;SDS011;20339;49.754;20.158;2022-08-01T08:23:46;1.40;;;1.00;;
34064;SDS011;20339;49.754;20.158;2022-08-01T08:26:35;2.60;;;1.00;;
34064;SDS011;20339;49.754;20.158;2022-08-01T08:29:07;2.20;;;1.00;;
34064;SDS011;20339;49.754;20.158;2022-08-01T08:31:39;1.60;;;0.90;;
34064;SDS011;20339;49.754;20.158;2022-08-01T08:34:11;1.30;;;0.90;;
34064;SDS011;20339;49.754;20.158;2022-08-01T08:36:42;1.30;;;0.90;;
34064;SDS011;20339;49.754;20.158;2022-08-01T08:39:14;2.90;;;1.10;;
34064;SDS011;20339;49.754;20.158;2022-08-01T08:41:46;1.10;;;0.80;;
34064;SDS011;20339;49.754;20.158;2022-08-01T08:44:19;1.90;;;0.90;;
34064;SDS011;20339;49.754;20.158;2022-08-01T08:46:51;1.90;;;0.80;;
34064;SDS011;20339;49.754;20.158;2022-08-01T08:49:29;1.30;;;0.80;;
34064;SDS011;20339;49.754;20.158;2022-08-01T08:52:04;2.50;;;1.10;;
34064;SDS011;20339;49.754;20.158;2022-08-01T08:54:41;1.70;;;1.10;;
34064;SDS011;20339;49.754;20.158;2022-08-01T08:57:14;1.60;;;1.20;;
34064;SDS011;20339;49.754;20.158;2022-08-01T08:59:47;1.10;;;0.80;;
34064;SDS011;20339;49.754;20.158;2022-08-01T09:02:22;3.70;;;1.20;;
34064;SDS011;20339;49.754;20.158;2022-08-01T09:04:53;2.10;;;0.80;;
34064;SDS011;20339;49.754;20.158;2022-08-01T09:07:26;4.30;;;1.00;;
34064;SDS011;20339;49.754;20.158;2022-08-01T09:10:00;1.20;;;0.70;;
34064;SDS011;20339;49.754;20.158;2022-08-01T09:12:31;1.60;;;1.10;;
34064;SDS011;20339;49.754;20.158;2022-08-01T09:15:03;3.30;;;1.10;;
34064;SDS011;20339;49.754;20.158;2022-08-01T09:17:41;1.90;;;1.50;;
34064;SDS011;20339;49.754;20.158;2022-08-01T09:20:23;1.30;;;1.20;;
34064;SDS011;20339;49.754;20.158;2022-08-01T09:22:57;1.40;;;1.10;;
34064;SDS011;20339;49.754;20.158;2022-08-01T09:25:28;2.30;;;1.10;;
34064;SDS011;20339;49.754;20.158;2022-08-01T09:28:19;1.50;;;1.20;;
34064;SDS011;20339;49.754;20.158;2022-08-01T09:31:00;1.20;;;1.00;;
34064;SDS011;20339;49.754;20.158;2022-08-01T09:33:50;1.60;;;1.10;;
34064;SDS011;20339;49.754;20.158;2022-08-01T09:36:23;1.70;;;1.20;;
34064;SDS011;20339;49.754;20.158;2022-08-01T09:38:55;2.10;;;1.50;;
34064;SDS011;20339;49.754;20.158;2022-08-01T09:41:40;2.10;;;1.20;;
34064;SDS011;20339;49.754;20.158;2022-08-01T09:44:12;1.60;;;1.10;;
34064;SDS011;20339;49.754;20.158;2022-08-01T09:46:50;2.80;;;1.10;;
34064;SDS011;20339;49.754;20.158;2022-08-01T09:49:30;3.80;;;1.20;;
34064;SDS011;20339;49.754;20.158;2022-08-01T09:52:11;2.70;;;1.30;;
34064;SDS011;20339;49.754;20.158;2022-08-01T09:54:51;5.10;;;2.10;;
34064;SDS011;20339;49.754;20.158;2022-08-01T09:57:23;2.10;;;1.20;;
34064;SDS011;20339;49.754;20.158;2022-08-01T09:59:57;1.80;;;1.20;;
34064;SDS011;20339;49.754;20.158;2022-08-01T10:02:31;4.40;;;1.50;;
34064;SDS011;20339;49.754;20.158;2022-08-01T10:05:04;2.00;;;1.30;;
34064;SDS011;20339;49.754;20.158;2022-08-01T10:10:28;2.80;;;1.30;;
34064;SDS011;20339;49.754;20.158;2022-08-01T10:13:00;2.30;;;1.50;;
34064;SDS011;20339;49.754;20.158;2022-08-01T10:15:32;5.20;;;1.70;;
34064;SDS011;20339;49.754;20.158;2022-08-01T10:18:06;3.70;;;1.70;;
34064;SDS011;20339;49.754;20.158;2022-08-01T10:20:41;3.20;;;1.50;;
34064;SDS011;20339;49.754;20.158;2022-08-01T10:23:13;2.10;;;1.10;;
34064;SDS011;20339;49.754;20.158;2022-08-01T10:25:45;3.00;;;1.60;;
34064;SDS011;20339;49.754;20.158;2022-08-01T10:28:17;2.40;;;1.60;;
34064;SDS011;20339;49.754;20.158;2022-08-01T10:30:50;1.60;;;1.40;;
34064;SDS011;20339;49.754;20.158;2022-08-01T10:33:22;2.90;;;1.30;;
34064;SDS011;20339;49.754;20.158;2022-08-01T10:35:54;3.70;;;1.40;;
34064;SDS011;20339;49.754;20.158;2022-08-01T10:38:27;2.90;;;1.50;;
34064;SDS011;20339;49.754;20.158;2022-08-01T10:40:59;6.90;;;2.40;;
34064;SDS011;20339;49.754;20.158;2022-08-01T10:43:35;2.50;;;1.50;;
34064;SDS011;20339;49.754;20.158;2022-08-01T10:46:06;2.70;;;1.60;;
34064;SDS011;20339;49.754;20.158;2022-08-01T10:48:41;4.80;;;2.20;;
34064;SDS011;20339;49.754;20.158;2022-08-01T10:51:16;6.30;;;2.20;;
34064;SDS011;20339;49.754;20.158;2022-08-01T10:53:51;5.40;;;1.70;;
34064;SDS011;20339;49.754;20.158;2022-08-01T10:56:26;4.00;;;1.60;;
34064;SDS011;20339;49.754;20.158;2022-08-01T10:59:14;2.80;;;1.60;;
34064;SDS011;20339;49.754;20.158;2022-08-01T11:01:56;4.60;;;1.60;;
34064;SDS011;20339;49.754;20.158;2022-08-01T11:04:36;2.10;;;1.70;;
34064;SDS011;20339;49.754;20.158;2022-08-01T11:07:20;3.90;;;1.60;;
34064;SDS011;20339;49.754;20.158;2022-08-01T11:10:03;3.10;;;1.80;;
34064;SDS011;20339;49.754;20.158;2022-08-01T11:12:40;5.00;;;1.70;;
34064;SDS011;20339;49.754;20.158;2022-08-01T11:15:22;3.70;;;1.40;;
34064;SDS011;20339;49.754;20.158;2022-08-01T11:17:58;2.60;;;1.50;;
34064;SDS011;20339;49.754;20.158;2022-08-01T11:20:32;3.10;;;1.40;;
34064;SDS011;20339;49.754;20.158;2022-08-01T11:23:26;2.10;;;1.50;;
34064;SDS011;20339;49.754;20.158;2022-08-01T11:31:44;2.90;;;1.60;;
34064;SDS011;20339;49.754;20.158;2022-08-01T11:34:20;3.90;;;1.90;;
34064;SDS011;20339;49.754;20.158;2022-08-01T11:37:24;3.10;;;1.70;;
34064;SDS011;20339;49.754;20.158;2022-08-01T11:42:45;2.10;;;1.90;;
34064;SDS011;20339;49.754;20.158;2022-08-01T11:45:17;2.90;;;1.60;;
34064;SDS011;20339;49.754;20.158;2022-08-01T11:47:49;3.00;;;1.60;;
34064;SDS011;20339;49.754;20.158;2022-08-01T11:50:36;3.60;;;1.60;;
34064;SDS011;20339;49.754;20.158;2022-08-01T11:53:07;2.60;;;1.60;;
34064;SDS011;20339;49.754;20.158;2022-08-01T11:55:38;2.90;;;1.70;;
34064;SDS011;20339;49.754;20.158;2022-08-01T11:58:20;7.10;;;1.80;;
34064;SDS011;20339;49.754;20.158;2022-08-01T12:00:53;3.00;;;1.60;;
34064;SDS011;20339;49.754;20.158;2022-08-01T12:03:28;3.30;;;1.70;;
34064;SDS011;20339;49.754;20.158;2022-08-01T12:06:01;2.80;;;1.70;;
34064;SDS011;20339;49.754;20.158;2022-08-01T12:08:34;3.50;;;1.60;;
34064;SDS011;20339;49.754;20.158;2022-08-01T12:11:06;2.60;;;1.80;;
34064;SDS011;20339;49.754;20.158;2022-08-01T12:13:41;1.70;;;1.60;;
34064;SDS011;20339;49.754;20.158;2022-08-01T12:16:14;3.50;;;1.80;;
34064;SDS011;20339;49.754;20.158;2022-08-01T12:18:46;2.20;;;1.70;;
34064;SDS011;20339;49.754;20.158;2022-08-01T12:21:17;3.20;;;1.60;;
34064;SDS011;20339;49.754;20.158;2022-08-01T12:24:00;1.90;;;1.40;;
34064;SDS011;20339;49.754;20.158;2022-08-01T12:26:41;3.20;;;1.60;;
34064;SDS011;20339;49.754;20.158;2022-08-01T12:35:03;2.20;;;1.40;;
34064;SDS011;20339;49.754;20.158;2022-08-01T12:37:37;2.20;;;1.70;;
34064;SDS011;20339;49.754;20.158;2022-08-01T12:40:16;4.10;;;2.00;;
34064;SDS011;20339;49.754;20.158;2022-08-01T12:42:49;2.10;;;1.80;;
34064;SDS011;20339;49.754;20.158;2022-08-01T12:45:23;4.90;;;1.70;;
34064;SDS011;20339;49.754;20.158;2022-08-01T12:47:57;6.70;;;1.70;;
34064;SDS011;20339;49.754;20.158;2022-08-01T12:50:30;3.60;;;1.80;;
34064;SDS011;20339;49.754;20.158;2022-08-01T12:53:02;2.30;;;1.80;;
34064;SDS011;20339;49.754;20.158;2022-08-01T12:55:33;2.20;;;1.60;;
34064;SDS011;20339;49.754;20.158;2022-08-01T12:58:15;1.80;;;1.50;;
34064;SDS011;20339;49.754;20.158;2022-08-01T13:00:48;2.60;;;1.60;;
34064;SDS011;20339;49.754;20.158;2022-08-01T13:03:31;3.10;;;1.80;;
34064;SDS011;20339;49.754;20.158;2022-08-01T13:06:08;2.80;;;1.70;;
34064;SDS011;20339;49.754;20.158;2022-08-01T13:08:42;1.60;;;1.30;;
34064;SDS011;20339;49.754;20.158;2022-08-01T13:11:14;2.90;;;1.70;;
34064;SDS011;20339;49.754;20.158;2022-08-01T13:13:48;3.60;;;1.80;;
34064;SDS011;20339;49.754;20.158;2022-08-01T13:16:25;3.00;;;2.30;;
34064;SDS011;20339;49.754;20.158;2022-08-01T13:18:58;2.40;;;2.10;;
34064;SDS011;20339;49.754;20.158;2022-08-01T13:21:30;5.20;;;1.80;;
34064;SDS011;20339;49.754;20.158;2022-08-01T13:24:02;3.00;;;2.10;;
34064;SDS011;20339;49.754;20.158;2022-08-01T13:26:39;3.80;;;1.90;;
34064;SDS011;20339;49.754;20.158;2022-08-01T13:29:12;2.10;;;1.70;;
34064;SDS011;20339;49.754;20.158;2022-08-01T13:31:45;3.50;;;1.60;;
34064;SDS011;20339;49.754;20.158;2022-08-01T13:34:16;3.00;;;2.60;;
34064;SDS011;20339;49.754;20.158;2022-08-01T13:37:00;2.00;;;1.80;;
34064;SDS011;20339;49.754;20.158;2022-08-01T13:39:32;2.50;;;1.90;;
34064;SDS011;20339;49.754;20.158;2022-08-01T13:42:13;4.10;;;2.20;;
34064;SDS011;20339;49.754;20.158;2022-08-01T13:44:45;4.20;;;1.90;;
34064;SDS011;20339;49.754;20.158;2022-08-01T13:47:17;2.30;;;1.70;;
34064;SDS011;20339;49.754;20.158;2022-08-01T13:49:49;2.10;;;1.60;;
34064;SDS011;20339;49.754;20.158;2022-08-01T13:52:22;2.90;;;2.10;;
34064;SDS011;20339;49.754;20.158;2022-08-01T13:54:54;3.60;;;1.70;;
34064;SDS011;20339;49.754;20.158;2022-08-01T13:57:29;2.20;;;1.80;;
34064;SDS011;20339;49.754;20.158;2022-08-01T14:00:00;2.60;;;1.90;;
34064;SDS011;20339;49.754;20.158;2022-08-01T14:02:35;3.40;;;1.70;;
34064;SDS011;20339;49.754;20.158;2022-08-01T14:05:09;2.50;;;1.90;;
34064;SDS011;20339;49.754;20.158;2022-08-01T14:07:43;2.90;;;1.90;;
34064;SDS011;20339;49.754;20.158;2022-08-01T14:10:17;2.90;;;1.60;;
34064;SDS011;20339;49.754;20.158;2022-08-01T14:12:54;3.60;;;1.80;;
34064;SDS011;20339;49.754;20.158;2022-08-01T14:15:29;3.20;;;2.00;;
34064;SDS011;20339;49.754;20.158;2022-08-01T14:18:04;3.70;;;2.10;;
34064;SDS011;20339;49.754;20.158;2022-08-01T14:20:37;3.70;;;2.10;;
34064;SDS011;20339;49.754;20.158;2022-08-01T14:23:12;4.20;;;2.70;;
34064;SDS011;20339;49.754;20.158;2022-08-01T14:25:44;2.60;;;2.10;;
34064;SDS011;20339;49.754;20.158;2022-08-01T14:28:16;3.30;;;2.10;;
34064;SDS011;20339;49.754;20.158;2022-08-01T14:30:48;5.20;;;3.20;;
34064;SDS011;20339;49.754;20.158;2022-08-01T14:33:21;3.60;;;2.20;;
34064;SDS011;20339;49.754;20.158;2022-08-01T14:35:52;5.20;;;2.70;;
34064;SDS011;20339;49.754;20.158;2022-08-01T14:38:24;5.10;;;4.00;;
34064;SDS011;20339;49.754;20.158;2022-08-01T14:40:55;7.10;;;4.40;;
34064;SDS011;20339;49.754;20.158;2022-08-01T14:43:27;3.80;;;2.40;;
34064;SDS011;20339;49.754;20.158;2022-08-01T14:46:00;3.30;;;2.20;;
34064;SDS011;20339;49.754;20.158;2022-08-01T14:48:32;3.90;;;2.30;;
34064;SDS011;20339;49.754;20.158;2022-08-01T14:51:04;3.30;;;2.20;;
34064;SDS011;20339;49.754;20.158;2022-08-01T14:53:35;4.10;;;2.50;;
34064;SDS011;20339;49.754;20.158;2022-08-01T14:56:09;4.90;;;2.60;;
34064;SDS011;20339;49.754;20.158;2022-08-01T14:58:41;3.30;;;2.60;;
34064;SDS011;20339;49.754;20.158;2022-08-01T15:01:13;3.70;;;2.60;;
34064;SDS011;20339;49.754;20.158;2022-08-01T15:03:46;2.50;;;2.20;;
34064;SDS011;20339;49.754;20.158;2022-08-01T15:06:18;3.20;;;2.20;;
34064;SDS011;20339;49.754;20.158;2022-08-01T15:08:50;4.40;;;3.00;;
34064;SDS011;20339;49.754;20.158;2022-08-01T15:11:23;4.00;;;2.70;;
34064;SDS011;20339;49.754;20.158;2022-08-01T15:13:55;4.00;;;2.70;;
34064;SDS011;20339;49.754;20.158;2022-08-01T15:16:44;4.60;;;3.00;;
34064;SDS011;20339;49.754;20.158;2022-08-01T15:19:17;3.30;;;2.60;;
34064;SDS011;20339;49.754;20.158;2022-08-01T15:21:49;4.40;;;2.50;;
34064;SDS011;20339;49.754;20.158;2022-08-01T15:24:22;4.50;;;2.90;;
34064;SDS011;20339;49.754;20.158;2022-08-01T15:26:54;3.10;;;2.60;;
34064;SDS011;20339;49.754;20.158;2022-08-01T15:29:26;3.00;;;2.70;;
34064;SDS011;20339;49.754;20.158;2022-08-01T15:31:57;7.70;;;4.50;;